createdAt,value
2018-08-25T00:00:19.136Z,23.63
2018-08-25T00:00:50.724Z,23.64
2018-08-25T00:01:22.313Z,23.63
2018-08-25T00:01:53.900Z,23.63
2018-08-25T00:02:25.488Z,23.63
2018-08-25T00:02:57.089Z,23.64
2018-08-25T00:03:28.666Z,23.63
2018-08-25T00:04:00.252Z,23.61
2018-08-25T00:04:31.859Z,23.60
2018-08-25T00:05:03.465Z,23.59
2018-08-25T00:05:35.052Z,23.58
2018-08-25T00:06:06.644Z,23.57
2018-08-25T00:06:38.237Z,23.56
2018-08-25T00:07:09.846Z,23.58
2018-08-25T00:07:41.426Z,23.56
2018-08-25T00:08:13.012Z,23.56
2018-08-25T00:08:44.599Z,23.57
2018-08-25T00:09:16.188Z,23.57
2018-08-25T00:09:47.812Z,23.58
2018-08-25T00:10:19.470Z,23.59
2018-08-25T00:10:51.113Z,23.58
2018-08-25T00:11:22.705Z,23.56
2018-08-25T00:11:54.306Z,23.56
2018-08-25T00:12:25.900Z,23.54
2018-08-25T00:12:57.501Z,23.54
2018-08-25T00:13:29.106Z,23.54
2018-08-25T00:14:00.701Z,23.55
2018-08-25T00:14:32.296Z,23.54
2018-08-25T00:15:03.874Z,23.53
2018-08-25T00:15:35.508Z,23.54
2018-08-25T00:16:07.155Z,23.51
2018-08-25T00:16:38.743Z,23.53
2018-08-25T00:17:10.341Z,23.53
2018-08-25T00:17:41.933Z,23.54
2018-08-25T00:18:13.534Z,23.56
2018-08-25T00:18:45.124Z,23.58
2018-08-25T00:19:16.726Z,23.63
2018-08-25T00:19:48.318Z,23.64
2018-08-25T00:20:19.910Z,23.59
2018-08-25T00:20:51.555Z,23.06
2018-08-25T00:21:23.157Z,22.67
2018-08-25T00:21:54.764Z,22.34
2018-08-25T00:22:26.359Z,22.09
2018-08-25T00:22:57.953Z,22.03
2018-08-25T00:23:29.534Z,22.25
2018-08-25T00:24:01.114Z,22.51
2018-08-25T00:24:32.718Z,22.71
2018-08-25T00:25:04.383Z,22.85
2018-08-25T00:25:35.962Z,22.98
2018-08-25T00:26:07.549Z,23.07
2018-08-25T00:26:39.140Z,23.14
2018-08-25T00:27:10.748Z,23.19
2018-08-25T00:27:42.340Z,23.22
2018-08-25T00:28:13.922Z,23.20
2018-08-25T00:28:45.512Z,23.24
2018-08-25T00:29:17.114Z,23.26
2018-08-25T00:29:48.718Z,23.27
2018-08-25T00:30:20.360Z,23.27
2018-08-25T00:30:51.948Z,23.27
2018-08-25T00:31:23.527Z,23.27
2018-08-25T00:31:55.130Z,23.27
2018-08-25T00:32:26.711Z,23.29
2018-08-25T00:32:58.299Z,23.29
2018-08-25T00:33:29.884Z,23.31
2018-08-25T00:34:01.506Z,23.31
2018-08-25T00:34:33.120Z,23.37
2018-08-25T00:35:04.694Z,23.39
2018-08-25T00:35:36.321Z,23.38
2018-08-25T00:36:07.922Z,23.38
2018-08-25T00:36:39.516Z,23.37
2018-08-25T00:37:11.120Z,23.37
2018-08-25T00:37:42.722Z,23.40
2018-08-25T00:38:14.308Z,23.40
2018-08-25T00:38:45.899Z,23.42
2018-08-25T00:39:17.487Z,23.43
2018-08-25T00:39:49.116Z,23.40
2018-08-25T00:40:20.719Z,23.42
2018-08-25T00:40:52.304Z,23.43
2018-08-25T00:41:23.905Z,23.45
2018-08-25T00:41:55.492Z,23.47
2018-08-25T00:42:27.085Z,23.48
2018-08-25T00:42:58.747Z,23.49
2018-08-25T00:43:30.326Z,23.47
2018-08-25T00:44:01.930Z,23.47
2018-08-25T00:44:33.530Z,23.47
2018-08-25T00:45:05.138Z,23.49
2018-08-25T00:45:36.727Z,23.49
2018-08-25T00:46:08.326Z,23.48
2018-08-25T00:46:39.934Z,23.49
2018-08-25T00:47:11.545Z,23.49
2018-08-25T00:47:43.185Z,23.51
2018-08-25T00:48:14.811Z,23.49
2018-08-25T00:48:46.414Z,23.49
2018-08-25T00:49:18.022Z,23.49
2018-08-25T00:49:49.616Z,23.50
2018-08-25T00:50:21.248Z,23.48
2018-08-25T00:50:52.826Z,23.48
2018-08-25T00:51:24.434Z,23.48
2018-08-25T00:51:56.043Z,23.46
2018-08-25T00:52:27.636Z,23.43
2018-08-25T00:52:59.231Z,23.44
2018-08-25T00:53:30.806Z,23.44
2018-08-25T00:54:02.386Z,23.43
2018-08-25T00:54:33.994Z,23.43
2018-08-25T00:55:05.590Z,23.41
2018-08-25T00:55:37.183Z,23.41
2018-08-25T00:56:08.776Z,23.40
2018-08-25T00:56:40.360Z,23.37
2018-08-25T00:57:11.940Z,23.40
2018-08-25T00:57:43.545Z,23.40
2018-08-25T00:58:15.132Z,23.41
2018-08-25T00:58:46.760Z,23.41
2018-08-25T00:59:18.375Z,23.42
2018-08-25T00:59:49.998Z,23.42
2018-08-25T01:00:21.589Z,23.42
2018-08-25T01:00:53.167Z,23.42
2018-08-25T01:01:24.773Z,23.42
2018-08-25T01:01:56.369Z,23.41
2018-08-25T01:02:27.964Z,23.41
2018-08-25T01:02:59.552Z,23.40
2018-08-25T01:03:31.162Z,23.40
2018-08-25T01:04:02.809Z,23.42
2018-08-25T01:04:34.396Z,23.41
2018-08-25T01:05:05.984Z,23.42
2018-08-25T01:05:37.582Z,23.41
2018-08-25T01:06:09.172Z,23.40
2018-08-25T01:06:40.780Z,23.38
2018-08-25T01:07:12.362Z,23.38
2018-08-25T01:07:43.960Z,23.36
2018-08-25T01:08:15.534Z,23.34
2018-08-25T01:08:47.154Z,23.34
2018-08-25T01:09:18.755Z,23.35
2018-08-25T01:09:50.362Z,23.32
2018-08-25T01:10:21.951Z,23.33
2018-08-25T01:10:53.549Z,23.33
2018-08-25T01:11:25.144Z,23.33
2018-08-25T01:11:56.758Z,23.33
2018-08-25T01:12:28.363Z,23.33
2018-08-25T01:12:59.966Z,23.33
2018-08-25T01:13:31.572Z,23.32
2018-08-25T01:14:03.190Z,23.30
2018-08-25T01:14:34.798Z,23.30
2018-08-25T01:15:06.405Z,23.31
2018-08-25T01:15:38.061Z,23.30
2018-08-25T01:16:09.627Z,23.32
2018-08-25T01:16:41.250Z,23.32
2018-08-25T01:17:12.850Z,23.31
2018-08-25T01:17:44.450Z,23.30
2018-08-25T01:18:16.036Z,23.29
2018-08-25T01:18:47.633Z,23.31
2018-08-25T01:19:19.220Z,23.30
2018-08-25T01:19:50.802Z,23.28
2018-08-25T01:20:22.398Z,23.27
2018-08-25T01:20:53.983Z,23.27
2018-08-25T01:21:25.568Z,23.25
2018-08-25T01:21:57.158Z,23.24
2018-08-25T01:22:28.737Z,23.25
2018-08-25T01:23:00.325Z,23.26
2018-08-25T01:23:31.919Z,23.25
2018-08-25T01:24:03.508Z,23.25
2018-08-25T01:24:35.096Z,23.24
2018-08-25T01:25:06.687Z,23.24
2018-08-25T01:25:38.339Z,23.24
2018-08-25T01:26:09.937Z,23.24
2018-08-25T01:26:41.532Z,23.24
2018-08-25T01:27:13.124Z,23.23
2018-08-25T01:27:44.712Z,23.24
2018-08-25T01:28:16.313Z,23.22
2018-08-25T01:28:47.904Z,23.23
2018-08-25T01:29:19.489Z,23.23
2018-08-25T01:29:51.070Z,23.23
2018-08-25T01:30:22.656Z,23.23
2018-08-25T01:30:54.258Z,23.22
2018-08-25T01:31:25.848Z,23.20
2018-08-25T01:31:57.451Z,23.21
2018-08-25T01:32:29.057Z,23.20
2018-08-25T01:33:00.661Z,23.22
2018-08-25T01:33:32.266Z,23.21
2018-08-25T01:34:03.859Z,23.20
2018-08-25T01:34:35.462Z,23.20
2018-08-25T01:35:07.070Z,23.20
2018-08-25T01:35:38.718Z,23.19
2018-08-25T01:36:10.321Z,23.18
2018-08-25T01:36:41.944Z,23.17
2018-08-25T01:37:13.540Z,23.19
2018-08-25T01:37:45.147Z,23.19
2018-08-25T01:38:16.736Z,23.20
2018-08-25T01:38:48.324Z,23.24
2018-08-25T01:39:19.927Z,23.25
2018-08-25T01:39:51.517Z,23.24
2018-08-25T01:40:23.165Z,23.24
2018-08-25T01:40:54.770Z,23.22
2018-08-25T01:41:26.375Z,23.19
2018-08-25T01:41:57.959Z,23.18
2018-08-25T01:42:29.549Z,23.18
2018-08-25T01:43:01.154Z,23.18
2018-08-25T01:43:32.745Z,23.17
2018-08-25T01:44:04.342Z,23.16
2018-08-25T01:44:35.946Z,23.17
2018-08-25T01:45:07.550Z,23.15
2018-08-25T01:45:39.154Z,23.14
2018-08-25T01:46:10.740Z,23.15
2018-08-25T01:46:42.328Z,23.15
2018-08-25T01:47:13.931Z,23.17
2018-08-25T01:47:45.519Z,23.19
2018-08-25T01:48:17.126Z,23.19
2018-08-25T01:48:48.716Z,23.19
2018-08-25T01:49:20.324Z,23.18
2018-08-25T01:49:51.943Z,23.16
2018-08-25T01:50:23.544Z,23.16
2018-08-25T01:50:55.183Z,23.14
2018-08-25T01:51:26.772Z,23.14
2018-08-25T01:51:58.360Z,23.13
2018-08-25T01:52:29.942Z,23.10
2018-08-25T01:53:01.522Z,23.09
2018-08-25T01:53:33.098Z,23.09
2018-08-25T01:54:04.692Z,23.09
2018-08-25T01:54:36.270Z,23.09
2018-08-25T01:55:07.860Z,23.09
2018-08-25T01:55:39.448Z,23.08
2018-08-25T01:56:11.075Z,23.10
2018-08-25T01:56:42.664Z,23.07
2018-08-25T01:57:14.270Z,23.06
2018-08-25T01:57:45.890Z,23.06
2018-08-25T01:58:17.480Z,23.07
2018-08-25T01:58:49.073Z,23.06
2018-08-25T01:59:20.671Z,23.05
2018-08-25T01:59:52.273Z,23.01
2018-08-25T02:00:23.864Z,23.03
2018-08-25T02:00:55.466Z,23.02
2018-08-25T02:01:27.092Z,23.05
2018-08-25T02:01:58.671Z,23.04
2018-08-25T02:02:30.270Z,23.05
2018-08-25T02:03:01.900Z,23.05
2018-08-25T02:03:33.493Z,23.05
2018-08-25T02:04:05.098Z,23.01
2018-08-25T02:04:36.696Z,23.02
2018-08-25T02:05:08.285Z,23.02
2018-08-25T02:05:39.869Z,23.00
2018-08-25T02:06:11.450Z,23.01
2018-08-25T02:06:43.098Z,22.97
2018-08-25T02:07:14.688Z,22.99
2018-08-25T02:07:46.287Z,23.00
2018-08-25T02:08:17.880Z,23.01
2018-08-25T02:08:49.486Z,23.00
2018-08-25T02:09:21.076Z,23.00
2018-08-25T02:09:52.664Z,22.99
2018-08-25T02:10:24.266Z,22.97
2018-08-25T02:10:55.860Z,22.96
2018-08-25T02:11:27.453Z,22.98
2018-08-25T02:11:59.045Z,23.03
2018-08-25T02:12:30.635Z,23.03
2018-08-25T02:13:02.238Z,23.01
2018-08-25T02:13:33.864Z,23.02
2018-08-25T02:14:05.446Z,23.00
2018-08-25T02:14:37.053Z,22.98
2018-08-25T02:15:08.658Z,22.87
2018-08-25T02:15:40.253Z,22.99
2018-08-25T02:16:11.884Z,22.98
2018-08-25T02:16:43.481Z,22.98
2018-08-25T02:17:15.088Z,22.93
2018-08-25T02:17:46.667Z,22.95
2018-08-25T02:18:18.449Z,22.90
2018-08-25T02:18:50.039Z,22.90
2018-08-25T02:19:21.615Z,22.87
2018-08-25T02:19:53.222Z,22.85
2018-08-25T02:20:24.849Z,22.85
2018-08-25T02:20:56.431Z,22.85
2018-08-25T02:21:28.052Z,22.86
2018-08-25T02:21:59.640Z,22.88
2018-08-25T02:22:31.232Z,22.87
2018-08-25T02:23:02.838Z,22.88
2018-08-25T02:23:34.414Z,22.89
2018-08-25T02:24:06.014Z,22.91
2018-08-25T02:24:37.635Z,22.92
2018-08-25T02:25:09.239Z,22.93
2018-08-25T02:25:40.832Z,22.96
2018-08-25T02:26:12.425Z,22.96
2018-08-25T02:26:44.048Z,22.97
2018-08-25T02:27:15.635Z,22.97
2018-08-25T02:27:47.229Z,22.96
2018-08-25T02:28:18.910Z,22.96
2018-08-25T02:28:50.480Z,22.94
2018-08-25T02:29:22.111Z,22.93
2018-08-25T02:29:53.700Z,22.94
2018-08-25T02:30:25.310Z,22.95
2018-08-25T02:30:56.903Z,22.95
2018-08-25T02:31:28.492Z,22.95
2018-08-25T02:32:00.146Z,22.91
2018-08-25T02:32:31.736Z,22.89
2018-08-25T02:33:03.339Z,22.88
2018-08-25T02:33:34.929Z,22.85
2018-08-25T02:34:06.535Z,22.85
2018-08-25T02:34:38.142Z,22.85
2018-08-25T02:35:09.750Z,22.85
2018-08-25T02:35:41.344Z,22.86
2018-08-25T02:36:12.932Z,22.86
2018-08-25T02:36:44.521Z,22.84
2018-08-25T02:37:16.181Z,22.84
2018-08-25T02:37:47.780Z,22.82
2018-08-25T02:38:19.382Z,22.81
2018-08-25T02:38:51.083Z,22.83
2018-08-25T02:39:22.584Z,22.84
2018-08-25T02:39:54.176Z,22.87
2018-08-25T02:40:25.784Z,22.83
2018-08-25T02:40:57.372Z,22.83
2018-08-25T02:41:28.952Z,22.81
2018-08-25T02:42:00.533Z,22.79
2018-08-25T02:42:32.117Z,22.79
2018-08-25T02:43:03.703Z,22.79
2018-08-25T02:43:35.288Z,22.79
2018-08-25T02:44:06.862Z,22.77
2018-08-25T02:44:38.440Z,22.77
2018-08-25T02:45:10.028Z,22.77
2018-08-25T02:45:41.620Z,22.77
2018-08-25T02:46:13.222Z,22.76
2018-08-25T02:46:44.856Z,22.75
2018-08-25T02:47:16.460Z,22.72
2018-08-25T02:47:48.066Z,22.73
2018-08-25T02:48:19.674Z,22.73
2018-08-25T02:48:51.264Z,22.75
2018-08-25T02:49:22.865Z,22.78
2018-08-25T02:49:54.463Z,22.80
2018-08-25T02:50:26.048Z,22.81
2018-08-25T02:50:57.649Z,22.80
2018-08-25T02:51:29.249Z,22.83
2018-08-25T02:52:00.896Z,22.86
2018-08-25T02:52:32.487Z,22.82
2018-08-25T02:53:04.086Z,22.82
2018-08-25T02:53:35.691Z,22.85
2018-08-25T02:54:07.296Z,22.87
2018-08-25T02:54:38.874Z,22.85
2018-08-25T02:55:10.464Z,22.83
2018-08-25T02:55:42.066Z,22.82
2018-08-25T02:56:13.656Z,22.82
2018-08-25T02:56:45.274Z,22.80
2018-08-25T02:57:16.860Z,22.80
2018-08-25T02:57:48.467Z,22.81
2018-08-25T02:58:20.056Z,22.82
2018-08-25T02:58:51.661Z,22.81
2018-08-25T02:59:23.252Z,22.80
2018-08-25T02:59:54.844Z,22.81
2018-08-25T03:00:26.474Z,22.82
2018-08-25T03:00:58.094Z,22.80
2018-08-25T03:01:29.699Z,22.82
2018-08-25T03:02:01.383Z,22.84
2018-08-25T03:02:32.948Z,22.86
2018-08-25T03:03:04.542Z,22.89
2018-08-25T03:03:36.146Z,22.88
2018-08-25T03:04:07.755Z,22.87
2018-08-25T03:04:39.352Z,22.83
2018-08-25T03:05:11.002Z,22.82
2018-08-25T03:05:42.588Z,22.80
2018-08-25T03:06:14.194Z,22.79
2018-08-25T03:06:45.820Z,22.77
2018-08-25T03:07:17.415Z,22.76
2018-08-25T03:07:49.022Z,22.75
2018-08-25T03:08:20.616Z,22.74
2018-08-25T03:08:52.218Z,22.72
2018-08-25T03:09:23.821Z,22.71
2018-08-25T03:09:55.412Z,22.69
2018-08-25T03:10:26.991Z,22.70
2018-08-25T03:10:58.626Z,22.70
2018-08-25T03:11:30.295Z,22.71
2018-08-25T03:12:01.880Z,22.70
2018-08-25T03:12:33.481Z,22.69
2018-08-25T03:13:05.064Z,22.69
2018-08-25T03:13:36.687Z,22.70
2018-08-25T03:14:08.281Z,22.68
2018-08-25T03:14:39.858Z,22.67
2018-08-25T03:15:11.435Z,22.65
2018-08-25T03:15:43.025Z,22.66
2018-08-25T03:16:14.614Z,22.67
2018-08-25T03:16:46.256Z,22.65
2018-08-25T03:17:17.849Z,22.66
2018-08-25T03:17:49.446Z,22.72
2018-08-25T03:18:21.046Z,22.76
2018-08-25T03:18:52.650Z,22.74
2018-08-25T03:19:24.245Z,22.72
2018-08-25T03:19:55.832Z,22.71
2018-08-25T03:20:27.423Z,22.73
2018-08-25T03:20:59.054Z,22.69
2018-08-25T03:21:30.699Z,22.67
2018-08-25T03:22:02.346Z,22.65
2018-08-25T03:22:33.930Z,22.63
2018-08-25T03:23:05.525Z,22.63
2018-08-25T03:23:37.117Z,22.62
2018-08-25T03:24:08.718Z,22.61
2018-08-25T03:24:40.322Z,22.61
2018-08-25T03:25:11.916Z,22.61
2018-08-25T03:25:43.530Z,22.61
2018-08-25T03:26:15.133Z,22.59
2018-08-25T03:26:46.733Z,22.58
2018-08-25T03:27:18.338Z,22.59
2018-08-25T03:27:50.016Z,22.57
2018-08-25T03:28:21.604Z,22.55
2018-08-25T03:28:53.183Z,22.55
2018-08-25T03:29:24.779Z,22.55
2018-08-25T03:29:56.373Z,22.54
2018-08-25T03:30:27.979Z,22.55
2018-08-25T03:30:59.572Z,22.54
2018-08-25T03:31:31.169Z,22.53
2018-08-25T03:32:02.760Z,22.52
2018-08-25T03:32:34.348Z,22.52
2018-08-25T03:33:06.010Z,22.49
2018-08-25T03:33:37.604Z,22.52
2018-08-25T03:34:09.193Z,22.51
2018-08-25T03:34:40.780Z,22.53
2018-08-25T03:35:12.370Z,22.53
2018-08-25T03:35:43.959Z,22.56
2018-08-25T03:36:15.539Z,22.53
2018-08-25T03:36:47.114Z,22.50
2018-08-25T03:37:18.706Z,22.51
2018-08-25T03:37:50.282Z,22.53
2018-08-25T03:38:21.918Z,22.52
2018-08-25T03:38:53.508Z,22.51
2018-08-25T03:39:25.110Z,22.51
2018-08-25T03:39:56.702Z,22.53
2018-08-25T03:40:28.288Z,22.53
2018-08-25T03:40:59.881Z,22.54
2018-08-25T03:41:31.494Z,22.54
2018-08-25T03:42:03.084Z,22.52
2018-08-25T03:42:34.666Z,22.53
2018-08-25T03:43:06.337Z,22.53
2018-08-25T03:43:37.933Z,22.49
2018-08-25T03:44:09.534Z,22.48
2018-08-25T03:44:41.124Z,22.47
2018-08-25T03:45:12.721Z,22.43
2018-08-25T03:45:44.313Z,22.43
2018-08-25T03:46:15.892Z,22.40
2018-08-25T03:46:47.470Z,22.43
2018-08-25T03:47:19.056Z,22.44
2018-08-25T03:47:50.659Z,22.45
2018-08-25T03:48:22.284Z,22.44
2018-08-25T03:48:53.872Z,22.45
2018-08-25T03:49:25.464Z,22.43
2018-08-25T03:49:57.071Z,22.45
2018-08-25T03:50:28.674Z,22.44
2018-08-25T03:51:00.266Z,22.44
2018-08-25T03:51:31.866Z,22.44
2018-08-25T03:52:03.474Z,22.45
2018-08-25T03:52:35.064Z,22.43
2018-08-25T03:53:06.692Z,22.47
2018-08-25T03:53:38.297Z,22.47
2018-08-25T03:54:09.887Z,22.47
2018-08-25T03:54:41.476Z,22.45
2018-08-25T03:55:13.125Z,22.47
2018-08-25T03:55:44.701Z,22.47
2018-08-25T03:56:16.338Z,22.51
2018-08-25T03:56:47.942Z,22.50
2018-08-25T03:57:19.582Z,22.51
2018-08-25T03:57:51.195Z,22.50
2018-08-25T03:58:22.792Z,22.49
2018-08-25T03:58:54.390Z,22.49
2018-08-25T03:59:25.994Z,22.49
2018-08-25T03:59:57.594Z,22.51
2018-08-25T04:00:29.184Z,22.54
2018-08-25T04:01:00.772Z,22.55
2018-08-25T04:01:32.419Z,22.52
2018-08-25T04:02:03.986Z,22.54
2018-08-25T04:02:35.617Z,22.53
2018-08-25T04:03:07.208Z,22.56
2018-08-25T04:03:38.836Z,22.58
2018-08-25T04:04:10.438Z,22.59
2018-08-25T04:04:42.023Z,22.58
2018-08-25T04:05:13.612Z,22.59
2018-08-25T04:05:45.223Z,22.61
2018-08-25T04:06:16.829Z,22.59
2018-08-25T04:06:48.419Z,22.58
2018-08-25T04:07:20.012Z,22.57
2018-08-25T04:07:51.602Z,22.58
2018-08-25T04:08:23.196Z,22.56
2018-08-25T04:08:54.830Z,22.54
2018-08-25T04:09:26.434Z,22.55
2018-08-25T04:09:58.073Z,22.56
2018-08-25T04:10:29.640Z,22.55
2018-08-25T04:11:01.259Z,22.56
2018-08-25T04:11:32.856Z,22.55
2018-08-25T04:12:04.452Z,22.53
2018-08-25T04:12:36.071Z,22.53
2018-08-25T04:13:07.647Z,22.55
2018-08-25T04:13:39.255Z,22.57
2018-08-25T04:14:10.865Z,22.56
2018-08-25T04:14:42.450Z,22.60
2018-08-25T04:15:14.054Z,22.60
2018-08-25T04:15:45.658Z,22.58
2018-08-25T04:16:17.294Z,22.56
2018-08-25T04:16:48.885Z,22.54
2018-08-25T04:17:20.462Z,22.52
2018-08-25T04:17:52.052Z,22.55
2018-08-25T04:18:23.645Z,22.55
2018-08-25T04:18:55.240Z,22.53
2018-08-25T04:19:26.832Z,22.54
2018-08-25T04:19:58.472Z,22.53
2018-08-25T04:20:30.061Z,22.52
2018-08-25T04:21:01.649Z,22.50
2018-08-25T04:21:33.272Z,22.52
2018-08-25T04:22:04.923Z,22.52
2018-08-25T04:22:36.488Z,22.52
2018-08-25T04:23:08.095Z,22.56
2018-08-25T04:23:39.698Z,22.55
2018-08-25T04:24:11.306Z,22.57
2018-08-25T04:24:42.914Z,22.54
2018-08-25T04:25:14.556Z,22.56
2018-08-25T04:25:46.144Z,22.54
2018-08-25T04:26:17.746Z,22.55
2018-08-25T04:26:49.335Z,22.53
2018-08-25T04:27:20.920Z,22.53
2018-08-25T04:27:52.527Z,22.52
2018-08-25T04:28:24.106Z,22.53
2018-08-25T04:28:55.704Z,22.54
2018-08-25T04:29:27.314Z,22.53
2018-08-25T04:29:58.950Z,22.54
2018-08-25T04:30:30.575Z,22.50
2018-08-25T04:31:02.191Z,22.48
2018-08-25T04:31:33.794Z,22.50
2018-08-25T04:32:05.384Z,22.50
2018-08-25T04:32:36.972Z,22.50
2018-08-25T04:33:08.578Z,22.48
2018-08-25T04:33:40.168Z,22.50
2018-08-25T04:34:11.752Z,22.49
2018-08-25T04:34:43.344Z,22.46
2018-08-25T04:35:14.976Z,22.43
2018-08-25T04:35:46.565Z,22.45
2018-08-25T04:36:18.152Z,22.43
2018-08-25T04:36:49.731Z,22.43
2018-08-25T04:37:21.353Z,22.44
2018-08-25T04:37:52.954Z,22.45
2018-08-25T04:38:24.534Z,22.47
2018-08-25T04:38:56.120Z,22.45
2018-08-25T04:39:27.709Z,22.45
2018-08-25T04:39:59.299Z,22.44
2018-08-25T04:40:30.905Z,22.43
2018-08-25T04:41:02.514Z,22.43
2018-08-25T04:41:34.113Z,22.43
2018-08-25T04:42:05.704Z,22.44
2018-08-25T04:42:37.328Z,22.44
2018-08-25T04:43:08.917Z,22.43
2018-08-25T04:43:40.508Z,22.44
2018-08-25T04:44:12.100Z,22.41
2018-08-25T04:44:43.688Z,22.43
2018-08-25T04:45:15.290Z,22.45
2018-08-25T04:45:46.894Z,22.43
2018-08-25T04:46:18.498Z,22.42
2018-08-25T04:46:50.110Z,22.42
2018-08-25T04:47:21.740Z,22.42
2018-08-25T04:47:53.342Z,22.42
2018-08-25T04:48:24.936Z,22.43
2018-08-25T04:48:56.524Z,22.43
2018-08-25T04:49:28.156Z,22.43
2018-08-25T04:49:59.730Z,22.41
2018-08-25T04:50:31.334Z,22.41
2018-08-25T04:51:02.913Z,22.40
2018-08-25T04:51:34.514Z,22.38
2018-08-25T04:52:06.104Z,22.38
2018-08-25T04:52:37.711Z,22.36
2018-08-25T04:53:09.305Z,22.36
2018-08-25T04:53:40.903Z,22.35
2018-08-25T04:54:12.526Z,22.32
2018-08-25T04:54:44.186Z,22.33
2018-08-25T04:55:15.786Z,22.35
2018-08-25T04:55:47.379Z,22.33
2018-08-25T04:56:18.982Z,22.37
2018-08-25T04:56:50.585Z,22.37
2018-08-25T04:57:22.162Z,22.37
2018-08-25T04:57:53.762Z,22.37
2018-08-25T04:58:25.352Z,22.38
2018-08-25T04:58:56.954Z,22.39
2018-08-25T04:59:28.558Z,22.41
2018-08-25T05:00:00.188Z,22.42
2018-08-25T05:00:31.794Z,22.24
2018-08-25T05:01:03.400Z,22.46
2018-08-25T05:01:35.006Z,22.45
2018-08-25T05:02:06.596Z,22.44
2018-08-25T05:02:38.184Z,22.44
2018-08-25T05:03:09.806Z,22.44
2018-08-25T05:03:41.399Z,22.42
2018-08-25T05:04:12.985Z,22.41
2018-08-25T05:04:44.576Z,22.40
2018-08-25T05:05:16.196Z,22.38
2018-08-25T05:05:47.802Z,22.37
2018-08-25T05:06:19.399Z,22.37
2018-08-25T05:06:51.000Z,22.38
2018-08-25T05:07:22.590Z,22.38
2018-08-25T05:07:54.183Z,22.38
2018-08-25T05:08:25.788Z,22.36
2018-08-25T05:08:57.385Z,22.37
2018-08-25T05:09:29.010Z,22.35
2018-08-25T05:10:00.615Z,22.35
2018-08-25T05:10:32.270Z,22.35
2018-08-25T05:11:03.861Z,22.33
2018-08-25T05:11:35.453Z,22.33
2018-08-25T05:12:07.054Z,22.33
2018-08-25T05:12:38.650Z,22.34
2018-08-25T05:13:10.227Z,22.30
2018-08-25T05:13:41.802Z,22.30
2018-08-25T05:14:13.392Z,22.29
2018-08-25T05:14:45.047Z,22.31
2018-08-25T05:15:16.654Z,22.30
2018-08-25T05:15:48.262Z,22.29
2018-08-25T05:16:19.852Z,22.30
2018-08-25T05:16:51.440Z,22.31
2018-08-25T05:17:23.043Z,22.31
2018-08-25T05:17:54.636Z,22.33
2018-08-25T05:18:26.233Z,22.32
2018-08-25T05:18:57.825Z,22.33
2018-08-25T05:19:29.460Z,22.37
2018-08-25T05:20:01.063Z,22.35
2018-08-25T05:20:32.687Z,22.33
2018-08-25T05:21:04.294Z,22.35
2018-08-25T05:21:35.919Z,22.37
2018-08-25T05:22:07.535Z,22.36
2018-08-25T05:22:39.124Z,22.35
2018-08-25T05:23:10.742Z,22.33
2018-08-25T05:23:42.341Z,22.33
2018-08-25T05:24:13.933Z,22.33
2018-08-25T05:24:45.543Z,22.33
2018-08-25T05:25:17.150Z,22.32
2018-08-25T05:25:48.750Z,22.34
2018-08-25T05:26:20.348Z,22.33
2018-08-25T05:26:51.990Z,22.35
2018-08-25T05:27:23.629Z,22.35
2018-08-25T05:27:55.206Z,22.35
2018-08-25T05:28:26.800Z,22.36
2018-08-25T05:28:58.378Z,22.36
2018-08-25T05:29:29.991Z,22.36
2018-08-25T05:30:01.599Z,22.35
2018-08-25T05:30:33.193Z,22.32
2018-08-25T05:31:04.780Z,22.31
2018-08-25T05:31:36.383Z,22.31
2018-08-25T05:32:07.977Z,22.32
2018-08-25T05:32:39.604Z,22.31
2018-08-25T05:33:11.191Z,22.33
2018-08-25T05:33:42.784Z,22.33
2018-08-25T05:34:14.363Z,22.37
2018-08-25T05:34:45.944Z,22.37
2018-08-25T05:35:17.549Z,22.37
2018-08-25T05:35:49.136Z,22.38
2018-08-25T05:36:20.745Z,22.41
2018-08-25T05:36:52.390Z,22.42
2018-08-25T05:37:23.995Z,22.42
2018-08-25T05:37:55.639Z,22.42
2018-08-25T05:38:27.228Z,22.39
2018-08-25T05:38:58.831Z,22.40
2018-08-25T05:39:30.429Z,22.39
2018-08-25T05:40:02.038Z,22.39
2018-08-25T05:40:33.635Z,22.38
2018-08-25T05:41:05.223Z,22.40
2018-08-25T05:41:36.812Z,22.40
2018-08-25T05:42:08.400Z,22.41
2018-08-25T05:42:40.023Z,22.42
2018-08-25T05:43:11.609Z,22.42
2018-08-25T05:43:43.214Z,22.43
2018-08-25T05:44:14.826Z,22.43
2018-08-25T05:44:46.422Z,22.42
2018-08-25T05:45:18.032Z,22.39
2018-08-25T05:45:49.628Z,22.35
2018-08-25T05:46:21.221Z,22.33
2018-08-25T05:46:52.830Z,22.34
2018-08-25T05:47:24.430Z,22.34
2018-08-25T05:47:56.046Z,22.33
2018-08-25T05:48:27.636Z,22.34
2018-08-25T05:48:59.247Z,22.35
2018-08-25T05:49:30.849Z,22.36
2018-08-25T05:50:02.451Z,22.36
2018-08-25T05:50:34.049Z,22.27
2018-08-25T05:51:05.626Z,22.41
2018-08-25T05:51:37.232Z,22.41
2018-08-25T05:52:08.824Z,22.44
2018-08-25T05:52:40.452Z,22.44
2018-08-25T05:53:12.044Z,22.44
2018-08-25T05:53:43.680Z,22.45
2018-08-25T05:54:15.261Z,22.47
2018-08-25T05:54:46.838Z,22.46
2018-08-25T05:55:18.438Z,22.44
2018-08-25T05:55:50.027Z,22.47
2018-08-25T05:56:21.620Z,22.48
2018-08-25T05:56:53.222Z,22.56
2018-08-25T05:57:24.816Z,22.59
2018-08-25T05:57:56.395Z,22.61
2018-08-25T05:58:27.984Z,22.59
2018-08-25T05:58:59.611Z,22.62
2018-08-25T05:59:31.215Z,22.72
2018-08-25T06:00:02.808Z,22.28
2018-08-25T06:00:34.401Z,21.97
2018-08-25T06:01:06.002Z,21.61
2018-08-25T06:01:37.597Z,21.35
2018-08-25T06:02:09.188Z,21.18
2018-08-25T06:02:40.776Z,20.95
2018-08-25T06:03:12.378Z,20.94
2018-08-25T06:03:44.037Z,21.17
2018-08-25T06:04:15.678Z,21.41
2018-08-25T06:04:47.266Z,21.61
2018-08-25T06:05:18.856Z,21.76
2018-08-25T06:05:50.444Z,21.91
2018-08-25T06:06:22.058Z,22.02
2018-08-25T06:06:53.676Z,22.12
2018-08-25T06:07:25.278Z,22.19
2018-08-25T06:07:56.882Z,22.25
2018-08-25T06:08:28.477Z,22.30
2018-08-25T06:09:00.118Z,22.34
2018-08-25T06:09:31.699Z,22.36
2018-08-25T06:10:03.292Z,22.36
2018-08-25T06:10:34.898Z,22.35
2018-08-25T06:11:06.488Z,22.36
2018-08-25T06:11:38.080Z,22.38
2018-08-25T06:12:09.671Z,22.40
2018-08-25T06:12:41.280Z,22.45
2018-08-25T06:13:12.882Z,22.46
2018-08-25T06:13:44.518Z,22.46
2018-08-25T06:14:16.145Z,22.46
2018-08-25T06:14:47.730Z,22.47
2018-08-25T06:15:19.324Z,22.44
2018-08-25T06:15:50.926Z,22.44
2018-08-25T06:16:22.530Z,22.46
2018-08-25T06:16:54.114Z,22.44
2018-08-25T06:17:25.699Z,22.45
2018-08-25T06:17:57.288Z,22.45
2018-08-25T06:18:28.880Z,22.45
2018-08-25T06:19:00.473Z,22.47
2018-08-25T06:19:32.119Z,22.47
2018-08-25T06:20:03.711Z,22.45
2018-08-25T06:20:35.322Z,22.46
2018-08-25T06:21:06.902Z,22.49
2018-08-25T06:21:38.488Z,22.53
2018-08-25T06:22:10.091Z,22.56
2018-08-25T06:22:41.684Z,22.56
2018-08-25T06:23:13.276Z,22.55
2018-08-25T06:23:44.915Z,22.56
2018-08-25T06:24:16.505Z,22.56
2018-08-25T06:24:48.707Z,22.56
2018-08-25T06:25:20.374Z,22.56
2018-08-25T06:25:51.995Z,22.55
2018-08-25T06:26:23.586Z,22.54
2018-08-25T06:26:55.180Z,22.52
2018-08-25T06:27:26.764Z,22.51
2018-08-25T06:27:59.425Z,22.51
2018-08-25T06:28:31.009Z,22.52
2018-08-25T06:29:02.586Z,22.52
2018-08-25T06:29:34.284Z,22.52
2018-08-25T06:30:05.866Z,22.53
2018-08-25T06:30:37.479Z,22.58
2018-08-25T06:31:09.080Z,22.65
2018-08-25T06:31:40.688Z,22.70
2018-08-25T06:32:12.294Z,22.73
2018-08-25T06:32:43.899Z,22.76
2018-08-25T06:33:15.510Z,22.77
2018-08-25T06:33:47.110Z,22.77
2018-08-25T06:34:18.753Z,22.75
2018-08-25T06:34:50.358Z,22.80
2018-08-25T06:35:21.969Z,22.82
2018-08-25T06:35:53.619Z,22.83
2018-08-25T06:36:25.217Z,22.83
2018-08-25T06:36:56.822Z,22.84
2018-08-25T06:37:28.421Z,22.85
2018-08-25T06:38:00.091Z,22.84
2018-08-25T06:38:31.628Z,22.82
2018-08-25T06:39:03.216Z,22.80
2018-08-25T06:39:34.840Z,22.81
2018-08-25T06:40:06.443Z,22.80
2018-08-25T06:40:38.046Z,22.79
2018-08-25T06:41:09.650Z,22.79
2018-08-25T06:41:41.240Z,22.79
2018-08-25T06:42:12.832Z,22.78
2018-08-25T06:42:44.420Z,22.79
2018-08-25T06:43:15.998Z,22.80
2018-08-25T06:43:47.612Z,22.77
2018-08-25T06:44:19.249Z,22.76
2018-08-25T06:44:50.859Z,22.73
2018-08-25T06:45:22.461Z,22.71
2018-08-25T06:45:54.056Z,22.71
2018-08-25T06:46:25.649Z,22.70
2018-08-25T06:46:57.228Z,22.70